Time;durP1;ratioP1;P1;durP2;ratioP2;P2;SDS_P1;SDS_P2;PMS_P1;PMS_P2;Temp;Humidity;BMP_temperature;BMP_pressure;BME280_temperature;BME280_humidity;BME280_pressure;Samples;Min_cycle;Max_cycle;Signal;HPM_P1;HPM_P2
2022/07/24 00:00:25;;;;;;;14.30;8.55;;;;;;;25.22;53.04;99785.00;7632208;32;39208;-75
2022/07/24 00:04:41;;;;;;;14.93;9.65;;;;;;;25.29;53.27;99782.38;7632626;32;40823;-75
2022/07/24 00:08:57;;;;;;;17.65;9.23;;;;;;;25.07;54.52;99803.44;7632399;32;37943;-75
2022/07/24 00:13:13;;;;;;;15.68;9.45;;;;;;;25.12;54.14;99802.34;7632432;32;37020;-75
2022/07/24 00:17:29;;;;;;;12.15;9.02;;;;;;;25.17;53.71;99806.81;7632131;32;40023;-75
2022/07/24 00:21:45;;;;;;;17.17;9.57;;;;;;;25.31;52.19;99798.72;7614468;32;40100;-75
2022/07/24 00:26:02;;;;;;;12.68;8.30;;;;;;;25.17;52.01;99779.72;7606111;32;38656;-74
2022/07/24 00:30:18;;;;;;;14.32;7.90;;;;;;;25.27;51.14;99779.16;7606179;32;37710;-75
2022/07/24 00:34:34;;;;;;;12.98;8.55;;;;;;;25.32;50.68;99768.84;7606110;32;39956;-75
2022/07/24 00:38:50;;;;;;;13.35;8.95;;;;;;;25.33;50.21;99793.59;7605875;32;40750;-75
2022/07/24 00:43:06;;;;;;;15.15;8.93;;;;;;;24.23;54.59;99813.22;7605862;32;37886;-75
2022/07/24 00:47:22;;;;;;;16.17;10.23;;;;;;;24.20;56.28;99827.91;7605861;32;37841;-74
2022/07/24 00:51:40;;;;;;;16.35;8.95;;;;;;;24.49;55.97;99818.22;7621038;32;39226;-75
2022/07/24 00:55:57;;;;;;;16.52;9.40;;;;;;;24.75;54.25;99805.63;7618577;32;40014;-75
2022/07/24 01:00:13;;;;;;;13.88;9.35;;;;;;;24.92;53.68;99819.13;7618323;32;38385;-74
2022/07/24 01:04:30;;;;;;;13.82;8.48;;;;;;;24.77;54.30;99819.19;7631723;32;37137;-74
2022/07/24 01:08:46;;;;;;;11.25;7.43;;;;;;;24.84;52.89;99822.94;7618346;32;40066;-75
2022/07/24 01:13:02;;;;;;;15.05;8.15;;;;;;;24.83;52.80;99820.50;7630710;32;40072;-75
2022/07/24 01:17:18;;;;;;;13.55;7.87;;;;;;;25.03;52.48;99818.53;7608019;32;38699;-75
2022/07/24 01:21:34;;;;;;;12.43;7.90;;;;;;;25.12;51.76;99816.28;7605440;32;38205;-75
2022/07/24 01:25:51;;;;;;;11.43;7.32;;;;;;;25.17;51.15;99813.19;7605315;32;39428;-75
2022/07/24 01:30:07;;;;;;;12.57;6.85;;;;;;;25.30;49.78;99811.06;7605179;32;39915;-75
2022/07/24 01:34:23;;;;;;;12.18;7.87;;;;;;;25.53;48.96;99801.91;7604995;32;37943;-75
2022/07/24 01:38:39;;;;;;;11.63;7.20;;;;;;;25.63;48.17;99781.72;7604851;32;37028;-75
2022/07/24 01:42:56;;;;;;;14.80;7.18;;;;;;;25.45;48.95;99796.19;7605564;32;39241;-75
2022/07/24 01:47:12;;;;;;;14.40;6.80;;;;;;;25.63;48.57;99798.47;7613161;32;39856;-75
2022/07/24 01:51:28;;;;;;;11.73;6.37;;;;;;;25.71;48.49;99786.25;7630545;32;37936;-75
2022/07/24 01:55:44;;;;;;;12.90;6.82;;;;;;;25.63;48.88;99790.91;7630615;32;36970;-76
2022/07/24 02:00:00;;;;;;;9.63;6.85;;;;;;;25.79;47.91;99787.97;7630364;32;39912;-75
2022/07/24 02:04:17;;;;;;;10.75;6.90;;;;;;;25.95;47.45;99779.47;7630382;32;39687;-75
2022/07/24 02:08:33;;;;;;;11.80;6.72;;;;;;;25.85;47.73;99783.69;7630209;32;37925;-75
2022/07/24 02:12:49;;;;;;;11.12;6.87;;;;;;;26.06;47.08;99762.88;7630189;32;37717;-75
2022/07/24 02:17:05;;;;;;;10.00;6.00;;;;;;;26.20;46.45;99740.72;7622842;32;39188;-74
2022/07/24 02:21:21;;;;;;;13.38;6.18;;;;;;;26.23;46.51;99734.37;7604500;32;40003;-75
2022/07/24 02:25:37;;;;;;;12.10;6.65;;;;;;;26.04;47.21;99742.87;7608211;32;38161;-75
2022/07/24 02:29:53;;;;;;;9.50;6.18;;;;;;;26.20;46.75;99739.91;7607697;32;36922;-75
2022/07/24 02:34:10;;;;;;;12.70;6.80;;;;;;;26.33;45.84;99744.06;7607512;32;39252;-75
2022/07/24 02:38:26;;;;;;;14.07;6.90;;;;;;;26.30;44.87;99732.84;7607275;32;40858;-75
2022/07/24 02:42:42;;;;;;;9.55;5.97;;;;;;;26.22;45.06;99743.13;7607234;32;38728;-75
2022/07/24 02:46:58;;;;;;;11.15;6.90;;;;;;;26.18;45.17;99743.09;7607425;32;37865;-75
2022/07/24 02:51:14;;;;;;;12.95;6.93;;;;;;;26.16;45.72;99739.84;7607280;32;39973;-75
2022/07/24 02:55:31;;;;;;;13.40;6.78;;;;;;;26.13;46.71;99735.03;7607163;32;39639;-75
2022/07/24 02:59:51;;;;;;;11.00;6.35;;;;;;;26.07;46.99;99744.13;7607054;32;38500;-75
2022/07/24 03:04:08;;;;;;;11.80;6.82;;;;;;;26.03;46.76;99739.28;7607202;32;36971;-74
2022/07/24 03:08:24;;;;;;;11.20;6.12;;;;;;;26.01;46.79;99744.44;7623312;32;39213;-75
2022/07/24 03:12:40;;;;;;;15.05;6.50;;;;;;;26.15;46.44;99749.44;7616927;32;40726;-75
2022/07/24 03:16:56;;;;;;;9.80;5.62;;;;;;;26.08;46.74;99760.50;7606667;32;37871;-75
2022/07/24 03:21:14;;;;;;;8.80;6.03;;;;;;;26.01;46.93;99766.78;7606877;32;36669;-75
2022/07/24 03:25:52;;;;;;;11.45;6.82;;;;;;;25.86;47.51;99770.53;7606562;32;39297;-75
2022/07/24 03:30:09;;;;;;;10.18;6.22;;;;;;;25.99;46.66;99771.94;7606759;32;39996;-76
2022/07/24 03:34:25;;;;;;;13.80;6.25;;;;;;;25.91;46.62;99777.78;7606273;32;38765;-74
2022/07/24 03:38:41;;;;;;;12.90;6.40;;;;;;;25.82;46.70;99776.06;7606615;32;36992;-75
2022/07/24 03:42:57;;;;;;;11.10;6.03;;;;;;;25.29;48.10;99787.16;7606709;32;40005;-75
2022/07/24 03:47:13;;;;;;;11.95;5.80;;;;;;;25.55;47.50;99772.44;7606659;32;40120;-75
2022/07/24 03:51:29;;;;;;;10.18;6.12;;;;;;;25.60;47.37;99785.28;7606529;32;38151;-75
2022/07/24 03:55:46;;;;;;;13.55;6.37;;;;;;;25.72;46.83;99773.91;7623010;32;37865;-75
2022/07/24 04:00:04;;;;;;;10.57;5.70;;;;;;;25.76;46.82;99769.16;7632537;32;39315;-75
2022/07/24 04:04:20;;;;;;;10.60;5.85;;;;;;;25.68;46.66;99770.22;7632465;32;40003;-75
2022/07/24 04:08:36;;;;;;;13.43;5.90;;;;;;;25.82;46.44;99775.25;7632377;32;38005;-75
2022/07/24 04:12:52;;;;;;;9.55;5.60;;;;;;;25.92;46.12;99782.16;7619005;32;37851;-75
2022/07/24 04:17:09;;;;;;;10.60;5.68;;;;;;;25.74;46.95;99779.13;7632257;32;39063;-75
2022/07/24 04:21:25;;;;;;;12.32;5.40;;;;;;;25.84;46.23;99773.69;7632233;32;39871;-75
2022/07/24 04:25:41;;;;;;;11.27;5.65;;;;;;;25.85;46.66;99780.91;7630844;32;38609;-75
2022/07/24 04:29:57;;;;;;;9.40;6.00;;;;;;;25.88;46.10;99778.53;7632287;32;37007;-75
2022/07/24 04:34:13;;;;;;;9.73;5.25;;;;;;;25.82;46.66;99783.62;7632211;32;39480;-75
2022/07/24 04:38:31;;;;;;;12.95;5.43;;;;;;;25.95;47.07;99792.63;7632067;32;40226;-75
2022/07/24 04:42:47;;;;;;;11.98;5.87;;;;;;;26.00;47.13;99804.28;7594751;32;37902;-75
2022/07/24 04:47:03;;;;;;;14.48;6.45;;;;;;;26.30;46.15;99797.09;7613707;32;37027;-75
2022/07/24 04:51:19;;;;;;;13.27;6.70;;;;;;;26.15;46.03;99813.69;7618408;32;39969;-75
2022/07/24 04:55:35;;;;;;;9.65;6.12;;;;;;;26.21;46.11;99826.13;7631579;32;40070;-76
2022/07/24 04:59:51;;;;;;;14.15;6.68;;;;;;;26.27;45.50;99834.19;7631727;32;38785;-72
2022/07/24 05:04:07;;;;;;;11.73;6.40;;;;;;;26.43;46.44;99832.81;7631730;32;37057;-72
2022/07/24 05:08:23;;;;;;;9.80;6.37;;;;;;;26.19;46.60;99836.06;7631687;32;39369;-72
2022/07/24 05:12:39;;;;;;;10.73;6.82;;;;;;;26.08;46.88;99830.34;7631278;32;40258;-72
2022/07/24 05:16:55;;;;;;;10.98;6.55;;;;;;;26.19;46.75;99834.09;7630977;32;38002;-73
2022/07/24 05:21:11;;;;;;;11.18;5.80;;;;;;;26.28;46.77;99856.16;7631375;32;37590;-75
2022/07/24 05:25:27;;;;;;;11.32;6.70;;;;;;;25.95;47.60;99860.44;7631140;32;39396;-72
2022/07/24 05:29:43;;;;;;;10.15;6.68;;;;;;;26.39;46.90;99857.13;7631149;32;40916;-72
2022/07/24 05:34:02;;;;;;;10.95;6.72;;;;;;;26.09;48.03;99862.66;7630707;32;38648;-73
2022/07/24 05:38:18;;;;;;;11.15;7.20;;;;;;;26.31;47.88;99858.22;7631000;32;38586;-73
2022/07/24 05:42:34;;;;;;;10.95;7.12;;;;;;;26.49;47.17;99863.25;7630846;32;39943;-71
2022/07/24 05:46:50;;;;;;;11.85;7.45;;;;;;;26.53;47.31;99869.69;7608824;32;40012;-71
2022/07/24 05:51:06;;;;;;;12.68;7.45;;;;;;;26.22;47.78;99869.66;7604471;32;37699;-72
2022/07/24 05:55:23;;;;;;;13.45;8.13;;;;;;;26.27;47.86;99879.72;7604529;32;37522;-71
2022/07/24 05:59:39;;;;;;;12.13;7.57;;;;;;;26.09;48.01;99882.22;7611250;32;39891;-71
2022/07/24 06:03:55;;;;;;;11.07;7.37;;;;;;;26.08;48.33;99885.38;7633899;32;39864;-73
2022/07/24 06:08:11;;;;;;;17.85;7.45;;;;;;;26.34;47.89;99884.59;7633690;32;37885;-72
2022/07/24 06:12:27;;;;;;;11.38;8.02;;;;;;;26.66;47.63;99882.28;7633864;32;36895;-75
2022/07/24 06:16:43;;;;;;;12.77;8.10;;;;;;;26.68;47.38;99887.50;7633576;32;39961;-78
2022/07/24 06:20:59;;;;;;;11.88;8.55;;;;;;;26.87;46.84;99886.53;7633534;32;40003;-79
2022/07/24 06:25:16;;;;;;;13.88;8.57;;;;;;;26.99;46.39;99886.28;7633595;32;38730;-80
2022/07/24 06:29:32;;;;;;;11.65;8.93;;;;;;;26.73;47.06;99887.97;7618261;32;37079;-78
2022/07/24 06:33:48;;;;;;;15.73;9.60;;;;;;;27.06;46.08;99886.41;7594099;32;40063;-75
2022/07/24 06:38:04;;;;;;;13.68;8.65;;;;;;;26.63;46.75;99901.78;7607346;32;39003;-75
2022/07/24 06:42:21;;;;;;;13.75;9.23;;;;;;;27.24;45.71;99897.78;7607280;32;38472;-74
2022/07/24 06:46:37;;;;;;;12.35;9.05;;;;;;;27.42;45.26;99897.19;7607990;32;37554;-77
2022/07/24 06:50:53;;;;;;;12.95;8.68;;;;;;;27.82;43.67;99893.59;7607109;32;38954;-75
2022/07/24 06:55:09;;;;;;;14.48;9.73;;;;;;;27.73;43.68;99890.28;7618883;32;40079;-75
2022/07/24 06:59:25;;;;;;;15.68;9.15;;;;;;;28.07;42.77;99893.81;7632872;32;37894;-76
2022/07/24 07:03:42;;;;;;;14.40;9.68;;;;;;;27.95;43.21;99882.91;7633153;32;37086;-76
2022/07/24 07:07:58;;;;;;;14.32;9.55;;;;;;;28.34;41.69;99884.38;7632676;32;37608;-76
2022/07/24 07:12:14;;;;;;;15.52;9.30;;;;;;;29.01;39.83;99875.56;7632584;32;41244;-77
2022/07/24 07:16:31;;;;;;;16.62;8.80;;;;;;;29.23;38.60;99880.47;7632211;32;37923;-78
2022/07/24 07:20:53;;;;;;;11.52;8.40;;;;;;;29.36;38.22;99871.28;7629617;32;37854;-78
2022/07/24 07:25:10;;;;;;;10.53;7.73;;;;;;;29.88;36.15;99870.94;7629864;32;39243;-78
2022/07/24 07:29:26;;;;;;;12.52;8.13;;;;;;;29.90;36.02;99862.91;7630151;32;39834;-78
2022/07/24 07:33:45;;;;;;;13.30;7.55;;;;;;;30.40;33.99;99861.28;7629499;32;38062;-78
2022/07/24 07:38:01;;;;;;;11.43;7.97;;;;;;;30.75;32.93;99865.19;7629355;32;37120;-78
2022/07/24 07:42:17;;;;;;;12.90;7.90;;;;;;;30.70;33.04;99869.22;7629413;32;39042;-78
2022/07/24 07:46:33;;;;;;;11.10;7.15;;;;;;;30.51;33.09;99882.56;7629261;32;41610;-78
2022/07/24 07:50:50;;;;;;;10.10;7.40;;;;;;;30.58;32.41;99875.28;7632529;32;38811;-78
2022/07/24 07:55:06;;;;;;;15.48;7.53;;;;;;;30.51;32.53;99879.75;7632568;32;36922;-78
2022/07/24 07:59:22;;;;;;;13.82;7.37;;;;;;;30.88;32.49;99877.59;7632634;32;39863;-78
2022/07/24 08:03:38;;;;;;;11.63;7.30;;;;;;;30.54;31.72;99889.38;7632508;32;40823;-79
2022/07/24 08:07:54;;;;;;;11.88;7.28;;;;;;;30.29;31.83;99893.00;7632783;32;38548;-78
2022/07/24 08:12:11;;;;;;;11.70;6.57;;;;;;;30.37;31.51;99887.41;7618957;32;37555;-78
2022/07/24 08:16:31;;;;;;;9.85;7.15;;;;;;;30.80;31.03;99888.06;7618877;32;39231;-78
2022/07/24 08:20:47;;;;;;;11.38;6.32;;;;;;;31.30;30.44;99881.44;7631954;32;40021;-78
2022/07/24 08:25:04;;;;;;;13.77;6.07;;;;;;;31.39;28.69;99884.63;7618774;32;38718;-78
2022/07/24 08:29:20;;;;;;;12.18;7.25;;;;;;;31.50;27.48;99889.41;7632198;32;37033;-77
2022/07/24 08:33:36;;;;;;;13.60;6.87;;;;;;;31.52;28.64;99889.78;7632199;32;40067;-78
2022/07/24 08:37:52;;;;;;;15.05;7.22;;;;;;;31.41;29.02;99899.09;7632080;32;39931;-78
2022/07/24 08:42:08;;;;;;;10.20;6.70;;;;;;;31.39;28.82;99895.06;7631800;32;38607;-78
2022/07/24 08:46:25;;;;;;;10.15;6.68;;;;;;;31.72;28.31;99890.84;7631973;32;37715;-78
2022/07/24 08:50:43;;;;;;;12.37;6.85;;;;;;;31.85;29.08;99893.97;7613312;32;39441;-78
2022/07/24 08:54:59;;;;;;;9.77;6.50;;;;;;;31.51;28.58;99902.25;7605646;32;39829;-78
2022/07/24 08:59:17;;;;;;;11.48;6.70;;;;;;;31.82;28.01;99894.78;7631412;32;37844;-78
2022/07/24 09:03:46;;;;;;;12.80;6.50;;;;;;;32.03;28.07;99899.47;7605371;32;37037;-78
2022/07/24 09:08:10;;;;;;;9.57;6.50;;;;;;;32.29;26.18;99900.88;7618395;32;39951;-78
2022/07/24 09:12:29;;;;;;;7.00;5.30;;;;;;;32.14;26.84;99900.19;7605254;32;40814;-78
2022/07/24 09:16:46;;;;;;;12.63;5.28;;;;;;;32.02;26.74;99903.50;7607267;32;38046;-78
2022/07/24 09:21:14;;;;;;;9.45;5.30;;;;;;;31.72;25.67;99902.13;7631256;32;36998;-79
2022/07/24 09:25:30;;;;;;;8.20;5.87;;;;;;;31.62;25.31;99909.44;7627868;32;40090;-77
2022/07/24 09:29:46;;;;;;;7.95;5.05;;;;;;;31.62;25.98;99917.09;7619545;32;40867;-77
2022/07/24 09:34:08;;;;;;;8.40;5.12;;;;;;;31.90;23.99;99912.47;7628684;32;38044;-76
2022/07/24 09:38:25;;;;;;;8.70;5.93;;;;;;;31.38;25.70;99911.16;7615804;32;36954;-78
2022/07/24 09:42:42;;;;;;;9.98;5.72;;;;;;;31.03;26.81;99917.78;7629390;32;40154;-77
2022/07/24 09:47:09;;;;;;;9.63;6.22;;;;;;;31.22;27.47;99908.06;7629925;32;40787;-78
2022/07/24 09:51:29;;;;;;;10.23;6.30;;;;;;;31.70;26.31;99910.19;7616935;32;37549;-77
2022/07/24 09:55:55;;;;;;;11.30;6.20;;;;;;;31.87;26.55;99896.38;7630056;32;37340;-77
2022/07/24 10:00:12;;;;;;;9.35;5.62;;;;;;;31.96;25.16;99910.78;7629623;32;39151;-77
2022/07/24 10:04:34;;;;;;;8.80;5.57;;;;;;;31.94;26.15;99901.94;7615168;32;40784;-78
2022/07/24 10:08:51;;;;;;;11.30;5.82;;;;;;;32.23;25.57;99907.38;7612032;32;37871;-78
2022/07/24 10:13:08;;;;;;;11.02;5.82;;;;;;;33.02;23.77;99900.88;7605303;32;37145;-78
2022/07/24 10:17:37;;;;;;;7.15;4.97;;;;;;;33.06;23.13;99896.78;7603316;32;39235;-77
2022/07/24 10:21:54;;;;;;;6.15;4.05;;;;;;;33.16;21.25;99891.47;7603087;32;40039;-80
2022/07/24 10:26:16;;;;;;;8.07;4.75;;;;;;;32.88;21.84;99899.03;7628970;32;37686;-81
2022/07/24 10:30:32;;;;;;;8.65;5.22;;;;;;;32.33;22.44;99901.63;7597888;32;36925;-80
2022/07/24 10:34:54;;;;;;;10.40;5.00;;;;;;;32.83;21.67;99905.16;7589539;32;39234;-80
2022/07/24 10:39:18;;;;;;;6.18;4.35;;;;;;;33.43;21.72;99902.78;7602659;32;40761;-77
2022/07/24 10:43:34;;;;;;;6.28;4.30;;;;;;;33.87;20.37;99898.09;7591033;32;37909;-81
2022/07/24 10:47:54;;;;;;;7.57;3.80;;;;;;;33.84;19.38;99905.41;7593491;32;36981;-80
2022/07/24 10:52:32;;;;;;;5.47;3.80;;;;;;;34.02;18.57;99899.44;7593954;32;39193;-80
2022/07/24 10:56:50;;;;;;;5.62;4.10;;;;;;;33.82;18.26;99901.41;7606313;32;39683;-80
2022/07/24 11:01:27;;;;;;;5.35;3.85;;;;;;;34.34;19.18;99894.47;7626697;32;38676;-77
2022/07/24 11:06:01;;;;;;;11.15;4.87;;;;;;;34.45;18.70;99902.78;7632924;32;36984;-79
2022/07/24 11:10:17;;;;;;;7.30;4.20;;;;;;;34.63;18.04;99899.59;7631987;32;39248;-79
2022/07/24 11:14:40;;;;;;;6.78;3.85;;;;;;;34.49;18.03;99887.31;7632701;32;40946;-79
2022/07/24 11:18:57;;;;;;;5.90;3.65;;;;;;;33.82;18.14;99888.06;7632130;32;37868;-80
2022/07/24 11:23:20;;;;;;;7.43;3.47;;;;;;;33.95;17.73;99888.25;7622789;32;36935;-80
2022/07/24 11:27:51;;;;;;;4.65;3.30;;;;;;;34.65;16.67;99875.28;7605810;32;40143;-80
2022/07/24 11:32:17;;;;;;;6.25;3.55;;;;;;;35.03;15.80;99880.59;7593197;32;39773;-80
2022/07/24 11:36:35;;;;;;;6.18;3.28;;;;;;;35.41;13.87;99863.19;7619240;32;37883;-82
2022/07/24 11:40:51;;;;;;;8.00;3.58;;;;;;;35.58;14.22;99868.84;7609001;32;36881;-78
2022/07/24 11:45:08;;;;;;;5.43;3.22;;;;;;;35.99;12.91;99859.72;7618847;32;39209;-79
2022/07/24 11:49:25;;;;;;;6.60;3.05;;;;;;;36.76;13.93;99853.63;7609079;32;40822;-80
2022/07/24 11:53:43;;;;;;;5.85;3.20;;;;;;;36.20;13.82;99851.91;7605970;32;38748;-80
2022/07/24 11:58:01;;;;;;;5.95;3.72;;;;;;;35.83;13.68;99856.94;7613916;32;35961;-80
2022/07/24 12:02:41;;;;;;;3.50;2.92;;;;;;;36.76;13.50;99847.97;7632085;32;39255;-80
2022/07/24 12:06:58;;;;;;;5.40;3.45;;;;;;;36.93;12.97;99840.13;7618485;32;40025;-80
2022/07/24 12:11:22;;;;;;;4.53;3.10;;;;;;;35.89;14.05;99849.47;7613007;32;38724;-79
2022/07/24 12:15:38;;;;;;;6.18;3.40;;;;;;;35.98;14.22;99837.47;7614020;32;37037;-80
2022/07/24 12:19:57;;;;;;;5.90;3.47;;;;;;;35.87;14.38;99841.41;7614539;32;39256;-80
2022/07/24 12:24:13;;;;;;;5.47;3.17;;;;;;;35.59;14.66;99827.94;7605891;32;40650;-79
2022/07/24 12:28:29;;;;;;;6.32;3.30;;;;;;;36.14;14.46;99826.13;7592333;32;37942;-78
2022/07/24 12:32:57;;;;;;;4.05;3.03;;;;;;;36.04;14.37;99810.19;7592574;32;37002;-80
2022/07/24 12:37:18;;;;;;;4.57;3.25;;;;;;;36.91;14.16;99819.91;7629590;32;40057;-79
2022/07/24 12:41:49;;;;;;;7.17;3.40;;;;;;;37.23;13.23;99824.63;7631091;32;39954;-77
2022/07/24 12:46:09;;;;;;;7.18;2.78;;;;;;;36.40;13.66;99817.75;7629041;32;37976;-77
2022/07/24 12:50:25;;;;;;;3.75;2.60;;;;;;;35.85;14.92;99818.34;7628327;32;37811;-78
2022/07/24 12:55:02;;;;;;;4.55;2.90;;;;;;;35.99;13.50;99813.56;7627992;32;39576;-80
2022/07/24 12:59:27;;;;;;;4.45;2.60;;;;;;;36.02;12.90;99813.47;7616846;32;41527;-79
2022/07/24 13:03:49;;;;;;;4.35;2.67;;;;;;;36.12;13.40;99817.25;7628696;32;37573;-80
2022/07/24 13:08:05;;;;;;;4.57;2.30;;;;;;;36.46;13.34;99807.41;7627865;32;36657;-80
2022/07/24 13:12:21;;;;;;;3.65;2.45;;;;;;;37.44;12.05;99802.44;7627995;32;40055;-80
2022/07/24 13:16:43;;;;;;;22.65;4.12;;;;;;;38.06;11.31;99801.97;7616881;32;40829;-80
2022/07/24 13:20:59;;;;;;;;;;;;;;;37.40;11.43;99797.66;7628313;32;37926;-78
2022/07/24 13:25:15;;;;;;;3.42;2.40;;;;;;;37.40;10.71;99800.50;7630197;32;37472;-80
2022/07/24 13:29:33;;;;;;;7.05;2.50;;;;;;;36.63;11.37;99800.41;7629740;32;39333;-80
2022/07/24 13:33:50;;;;;;;3.33;2.70;;;;;;;36.45;12.23;99783.91;7626279;32;41071;-81
2022/07/24 13:38:06;;;;;;;3.40;2.60;;;;;;;35.65;13.71;99801.44;7629861;32;37979;-79
2022/07/24 13:42:23;;;;;;;5.60;2.30;;;;;;;35.91;13.12;99799.56;7625938;32;36931;-79
2022/07/24 13:46:39;;;;;;;3.28;2.35;;;;;;;37.11;11.73;99788.44;7630321;32;39325;-80
2022/07/24 13:50:56;;;;;;;3.55;2.20;;;;;;;37.24;10.31;99782.78;7630441;32;39915;-79
2022/07/24 13:55:12;;;;;;;5.12;2.65;;;;;;;37.85;10.56;99766.53;7628621;32;38567;-81
2022/07/24 13:59:28;;;;;;;3.10;2.08;;;;;;;37.98;10.17;99770.16;7633510;32;37083;-81
2022/07/24 14:03:44;;;;;;;5.40;2.45;;;;;;;38.18;10.44;99760.50;7628129;32;39265;-80
2022/07/24 14:08:20;;;;;;;2.62;2.00;;;;;;;38.17;11.31;99761.75;7627158;32;40249;-81
2022/07/24 14:12:36;;;;;;;4.97;2.33;;;;;;;38.78;9.75;99754.56;7629211;32;37808;-81
2022/07/24 14:16:54;;;;;;;3.78;2.10;;;;;;;38.77;9.46;99755.81;7639427;32;37778;-81
2022/07/24 14:21:10;;;;;;;3.20;2.00;;;;;;;38.95;10.05;99754.34;7633711;32;39303;-80
2022/07/24 14:25:26;;;;;;;5.70;2.10;;;;;;;38.84;9.96;99746.19;7630117;32;39988;-80
2022/07/24 14:29:42;;;;;;;4.68;2.05;;;;;;;38.87;10.01;99739.56;7615396;32;37844;-81
2022/07/24 14:33:58;;;;;;;8.05;2.15;;;;;;;38.35;10.08;99750.50;7607299;32;37663;-77
2022/07/24 14:38:14;;;;;;;3.40;2.05;;;;;;;37.75;10.18;99740.06;7607313;32;39245;-82
2022/07/24 14:42:30;;;;;;;3.22;2.10;;;;;;;37.20;10.72;99740.28;7607432;32;39124;-80
2022/07/24 14:46:47;;;;;;;3.65;1.90;;;;;;;37.33;10.67;99741.06;7607166;32;38672;-81
2022/07/24 14:51:03;;;;;;;3.75;2.30;;;;;;;37.27;10.75;99739.25;7628832;32;36680;-80
2022/07/24 14:55:25;;;;;;;6.70;1.87;;;;;;;37.25;11.27;99736.06;7622245;32;39817;-80
2022/07/24 14:59:41;;;;;;;3.78;2.17;;;;;;;37.51;10.42;99731.12;7606823;32;39696;-80
2022/07/24 15:03:57;;;;;;;3.75;2.08;;;;;;;37.05;10.83;99722.06;7614308;32;38585;-81
2022/07/24 15:08:13;;;;;;;6.37;2.40;;;;;;;37.52;11.45;99727.03;7622753;32;36843;-80
2022/07/24 15:12:29;;;;;;;8.30;2.10;;;;;;;37.65;10.87;99721.31;7606541;32;39931;-79
2022/07/24 15:16:45;;;;;;;3.47;2.20;;;;;;;38.06;10.53;99720.22;7606528;32;40171;-79
2022/07/24 15:21:01;;;;;;;2.95;1.85;;;;;;;37.60;10.42;99725.50;7621211;32;37916;-78
2022/07/24 15:25:18;;;;;;;5.57;2.30;;;;;;;37.61;10.51;99710.06;7631242;32;37688;-79
2022/07/24 15:29:34;;;;;;;3.05;2.00;;;;;;;37.32;11.32;99716.72;7630308;32;40846;-80
2022/07/24 15:33:50;;;;;;;4.00;2.15;;;;;;;37.64;11.07;99705.50;7644002;32;39665;-79
2022/07/24 15:38:12;;;;;;;2.60;1.80;;;;;;;37.25;11.05;99708.44;7640861;32;38416;-80
2022/07/24 15:42:28;;;;;;;2.75;1.95;;;;;;;37.23;11.32;99722.31;7638719;32;36900;-79
2022/07/24 15:46:45;;;;;;;2.67;1.85;;;;;;;37.44;11.11;99708.62;7632357;32;39074;-79
2022/07/24 15:51:05;;;;;;;2.70;1.80;;;;;;;36.84;11.27;99701.63;7619787;32;40877;-80
2022/07/24 15:55:22;;;;;;;4.85;1.98;;;;;;;36.99;11.60;99701.97;7619133;32;38026;-80
2022/07/24 15:59:38;;;;;;;8.95;1.80;;;;;;;36.63;11.74;99703.87;7606243;32;36930;-79
2022/07/24 16:03:54;;;;;;;4.35;2.03;;;;;;;36.64;11.83;99711.16;7609810;32;39968;-78
2022/07/24 16:08:10;;;;;;;2.35;1.85;;;;;;;35.90;12.47;99703.59;7617880;32;39995;-79
2022/07/24 16:12:27;;;;;;;3.28;2.10;;;;;;;35.92;12.42;99701.88;7623860;32;37690;-80
2022/07/24 16:16:46;;;;;;;4.12;2.15;;;;;;;36.02;12.14;99693.53;7623263;32;37780;-78
2022/07/24 16:21:02;;;;;;;3.30;2.08;;;;;;;35.40;12.49;99700.03;7621902;32;39569;-77
2022/07/24 16:25:18;;;;;;;3.37;1.98;;;;;;;35.42;12.59;99694.72;7614209;32;40026;-80
2022/07/24 16:29:34;;;;;;;2.65;2.15;;;;;;;35.40;12.79;99691.53;7615078;32;38076;-77
2022/07/24 16:33:50;;;;;;;3.28;1.80;;;;;;;35.36;12.79;99699.34;7631990;32;37253;-80
2022/07/24 16:38:07;;;;;;;6.32;2.70;;;;;;;35.30;13.20;99698.28;7622152;32;38965;-81
2022/07/24 16:42:23;;;;;;;4.65;3.05;;;;;;;35.24;13.79;99700.03;7620888;32;39797;-80
2022/07/24 16:46:39;;;;;;;5.47;2.78;;;;;;;34.88;14.02;99700.91;7606239;32;38658;-80
2022/07/24 16:50:56;;;;;;;4.57;2.62;;;;;;;35.29;14.42;99699.50;7621446;32;37114;-79
2022/07/24 16:55:12;;;;;;;3.60;2.08;;;;;;;35.07;14.05;99705.69;7630331;32;39282;-81
2022/07/24 16:59:28;;;;;;;5.95;2.70;;;;;;;35.04;13.79;99706.56;7618603;32;40688;-81
2022/07/24 17:03:44;;;;;;;4.80;3.20;;;;;;;34.83;14.00;99707.88;7605257;32;38021;-81
2022/07/24 17:08:00;;;;;;;5.75;2.50;;;;;;;34.97;13.86;99703.91;7607882;32;37166;-81
2022/07/24 17:12:16;;;;;;;6.57;2.83;;;;;;;34.78;13.81;99703.53;7631039;32;40391;-80
2022/07/24 17:16:32;;;;;;;5.50;3.00;;;;;;;34.69;13.86;99703.31;7631149;32;39792;-81
2022/07/24 17:20:49;;;;;;;5.12;2.55;;;;;;;34.19;14.74;99715.72;7631141;32;37748;-81
2022/07/24 17:25:05;;;;;;;8.73;2.25;;;;;;;33.99;14.65;99716.50;7619631;32;36715;-83
2022/07/24 17:29:42;;;;;;;6.22;2.28;;;;;;;34.03;14.84;99710.75;7629726;32;40469;-82
2022/07/24 17:33:58;;;;;;;2.33;2.05;;;;;;;33.49;15.60;99708.94;7617524;32;40157;-82
2022/07/24 17:38:14;;;;;;;3.58;2.37;;;;;;;33.69;15.49;99717.50;7612343;32;37919;-81
2022/07/24 17:42:31;;;;;;;4.90;2.28;;;;;;;33.46;15.84;99721.09;7604529;32;37812;-81
2022/07/24 17:46:47;;;;;;;2.17;1.98;;;;;;;33.40;15.59;99717.16;7605286;32;39013;-81
2022/07/24 17:51:03;;;;;;;2.90;2.15;;;;;;;32.98;16.03;99716.59;7616912;32;39631;-81
2022/07/24 17:55:19;;;;;;;6.43;2.95;;;;;;;32.63;16.28;99715.91;7612790;32;38651;-82
2022/07/24 17:59:35;;;;;;;5.72;2.35;;;;;;;32.51;16.54;99720.88;7595812;32;37767;-82
2022/07/24 18:03:51;;;;;;;9.15;2.72;;;;;;;31.98;17.35;99733.59;7633520;32;40030;-83
2022/07/24 18:08:08;;;;;;;4.53;2.33;;;;;;;31.81;17.69;99729.75;7590175;32;361159;-82
2022/07/24 18:12:24;;;;;;;5.55;2.28;;;;;;;32.08;17.47;99735.53;7629737;32;37946;-83
2022/07/24 18:16:40;;;;;;;6.20;2.30;;;;;;;31.89;18.11;99741.72;7619976;32;38105;-84
2022/07/24 18:20:56;;;;;;;3.12;2.20;;;;;;;31.81;17.98;99739.00;7619843;32;40016;-84
2022/07/24 18:25:12;;;;;;;2.97;2.05;;;;;;;31.68;18.14;99748.38;7633238;32;40783;-83
2022/07/24 18:29:33;;;;;;;5.43;2.40;;;;;;;31.17;18.59;99753.62;7633329;32;38474;-82
2022/07/24 18:33:49;;;;;;;5.12;2.40;;;;;;;31.36;18.76;99761.50;7633707;32;36959;-80
2022/07/24 18:38:05;;;;;;;3.92;2.87;;;;;;;31.19;19.35;99759.63;7614488;32;38746;-81
2022/07/24 18:42:21;;;;;;;4.78;2.30;;;;;;;31.08;19.83;99768.97;7621687;32;40005;-77
2022/07/24 18:46:37;;;;;;;6.30;2.50;;;;;;;30.85;20.70;99771.47;7608031;32;37883;-80
2022/07/24 18:50:54;;;;;;;6.45;4.00;;;;;;;30.63;19.94;99782.03;7617353;32;37026;-79
2022/07/24 18:55:12;;;;;;;7.65;4.43;;;;;;;30.49;20.26;99788.53;7619378;32;40476;-79
2022/07/24 18:59:36;;;;;;;5.53;2.83;;;;;;;30.39;20.51;99789.38;7632901;32;39950;-78
2022/07/24 19:03:53;;;;;;;4.00;2.35;;;;;;;30.20;21.18;99791.44;7631786;32;38646;-80
2022/07/24 19:08:09;;;;;;;6.37;2.58;;;;;;;30.04;21.34;99796.66;7618574;32;36857;-78
2022/07/24 19:12:25;;;;;;;4.87;2.45;;;;;;;29.89;22.19;99804.31;7621383;32;40019;-82
2022/07/24 19:16:41;;;;;;;7.65;3.72;;;;;;;29.84;21.62;99807.53;7632336;32;40929;-81
2022/07/24 19:20:57;;;;;;;7.70;3.28;;;;;;;29.72;21.55;99803.13;7631108;32;38822;-78
2022/07/24 19:25:14;;;;;;;5.78;2.97;;;;;;;29.54;21.75;99803.09;7632679;32;37819;-77
2022/07/24 19:29:35;;;;;;;4.53;2.72;;;;;;;29.40;21.94;99815.12;7621677;32;39329;-81
2022/07/24 19:33:52;;;;;;;6.22;2.60;;;;;;;29.35;22.27;99821.13;7630785;32;39608;-83
2022/07/24 19:38:08;;;;;;;4.62;2.83;;;;;;;29.19;22.77;99822.31;7622648;32;38148;-82
2022/07/24 19:42:24;;;;;;;5.40;2.60;;;;;;;29.07;22.73;99825.47;7614650;32;37049;-81
2022/07/24 19:46:41;;;;;;;5.68;2.55;;;;;;;28.73;23.21;99833.37;7593172;32;39101;-81
2022/07/24 19:50:57;;;;;;;5.40;2.40;;;;;;;28.68;23.13;99828.94;7606291;32;40581;-81
2022/07/24 19:55:33;;;;;;;5.10;2.47;;;;;;;28.45;24.01;99841.22;7629378;32;38438;-80
2022/07/24 19:59:49;;;;;;;4.82;2.62;;;;;;;28.36;24.06;99845.59;7618951;32;37765;-81
2022/07/24 20:04:05;;;;;;;3.65;2.60;;;;;;;28.23;24.54;99861.91;7617701;32;39068;-80